WETO2: N Canadian River, Wetumka, OK

Data processed at Fri Jun 15 2018 23:20


All information presented herein is the property of the government of the United States of America and may be revised or deleted at any time without prior notice.
Dissemination of this information without the expressed written consent of the Public Affairs Office, Tulsa District U.S. Army Corps of Engineers is strictly prohibited.
These data are gathered electronically and, as presented, have not undergone any form of quality control. These data are not guaranteed to be valid or correct.
Go to home page.
Go to station list.

Upstream stations:

Downstream station:
Previous Day
Next Day
Current Day
    
SHEF ID:       WETO2     North Canadian River near Wetumk
STATION TYPE:  

               PRECIP     STAGE  RIV-FLOW  BAT-LOAD
                   in        ft       cfs      volt
              Ccp-Rev   Ccp-Rev   Ccp-Rev   Ccp-Rev
(US/Central)
06/13 00:00      0.00      6.92       868     12.81
06/13 01:00      0.00      6.99       912     12.81
06/13 02:00      0.00      7.02       931     12.81
06/13 03:00      0.00      7.04       944     12.81
06/13 04:00      0.00      7.03       938     12.73
06/13 05:00      0.00      7.01       925     12.73
06/13 06:00      0.00      7.00       918     12.73
06/13 07:00      0.00      6.96       893     12.73
06/13 08:00      0.00      6.92       868     12.73
06/13 09:00      0.00      6.85       824     12.89
06/13 10:00      0.00      6.81       800     12.89
06/13 11:00      0.00      6.76       770     12.97
06/13 12:00      0.00      6.71       741     13.05
06/13 13:00      0.00      6.66       712     13.13
06/13 14:00      0.00      6.61       684     13.13
06/13 15:00      0.00      6.57       661     13.13
06/13 16:00      0.00      6.50       623     13.13
06/13 17:00      0.00      6.48       613     12.97
06/13 18:00      0.00      6.43       586     12.89
06/13 19:00      0.00      6.39       566     12.89
06/13 20:00      0.00      6.37       555     12.89
06/13 21:00      0.00      6.34       540     12.81
06/13 22:00      0.00      6.32       530     12.81
06/13 23:00      0.00      6.30       520     12.81